METAR Data
IDs: Format: Raw Decoded Include TAF

Data at: 1303 UTC 09 Dec 2019

KM02 091255Z AUTO 19015G23KT 10SM OVC014 14/12 A2978 RMK A01
KM02 091235Z AUTO 20020G26KT 10SM OVC014 14/12 A2979 RMK A01
KM02 091215Z AUTO 19018G25KT 10SM OVC014 14/12 A2979 RMK A01
KM02 091155Z AUTO 19016KT 10SM OVC015 14/11 A2979 RMK A01
KM02 091135Z AUTO 19016KT 10SM BKN015 OVC020 14/11 A2981 RMK A01
KM02 091115Z AUTO 19015G23KT 10SM BKN014 BKN018 OVC070 14/11 A2981 RMK A01
KM02 091055Z AUTO 19017G24KT 10SM BKN015 OVC019 14/11 A2982 RMK A01
KM02 091035Z AUTO 20016G22KT 10SM OVC015 14/11 A2983 RMK A01
KM02 091015Z AUTO 20016G23KT 10SM OVC014 14/11 A2984 RMK A01
KM02 090955Z AUTO 20011G25KT 10SM OVC015 14/11 A2985 RMK A01
KM02 090935Z AUTO 20013G20KT 10SM OVC015 14/11 A2985 RMK A01
KM02 090915Z AUTO 19017G22KT 10SM OVC017 14/11 A2986 RMK A01
KM02 090855Z AUTO 19016G23KT 10SM OVC018 14/10 A2986 RMK A01
KM02 090835Z AUTO 19016G23KT 10SM OVC018 14/10 A2986 RMK A01
KM02 090815Z AUTO 19015G23KT 10SM OVC019 14/10 A2987 RMK A01
KM02 090755Z AUTO 19014G21KT 10SM OVC020 14/09 A2987 RMK A01
KM02 090735Z AUTO 18013G19KT 10SM OVC022 14/09 A2988 RMK A01
KM02 090715Z AUTO 19013G21KT 10SM OVC023 14/09 A2989 RMK A01
KM02 090655Z AUTO 20012G20KT 10SM OVC023 14/09 A2990 RMK A01
KM02 090635Z AUTO 19011G22KT 10SM OVC023 14/09 A2990 RMK A01
KM02 090615Z AUTO 19013G20KT 10SM OVC024 14/09 A2991 RMK A01
KM02 090555Z AUTO 19013KT 10SM BKN025 OVC029 14/09 A2991 RMK A01
KM02 090535Z AUTO 19014G20KT 10SM SCT025 BKN030 OVC120 14/09 A2992 RMK A01
KM02 090515Z AUTO 20015G21KT 10SM BKN028 BKN035 OVC120 14/09 A2992 RMK A01
KM02 090455Z AUTO 19014G22KT 10SM BKN029 OVC039 14/09 A2994 RMK A01
KM02 090435Z AUTO 20015G22KT 10SM SCT032 BKN039 OVC110 14/08 A2995 RMK A01
KM02 090415Z AUTO 19013G21KT 10SM BKN033 OVC043 14/08 A2994 RMK A01
KM02 090355Z AUTO 18009G19KT 150V210 10SM OVC032 14/08 A2995 RMK A01
KM02 090335Z AUTO 19009G14KT 10SM BKN031 OVC042 14/07 A2995 RMK A01
KM02 090315Z AUTO 19010G15KT 10SM BKN031 OVC042 14/07 A2995 RMK A01
KM02 090255Z AUTO 19009G14KT 10SM OVC032 14/07 A2996 RMK A01
KM02 090235Z AUTO 20010KT 10SM OVC034 14/07 A2996 RMK A01
KM02 090215Z AUTO 18007G15KT 10SM OVC033 14/07 A2995 RMK A01
KM02 090155Z AUTO 17008KT 10SM OVC032 14/07 A2995 RMK A01
KM02 090135Z AUTO 16006G15KT 10SM BKN031 OVC039 14/07 A2995 RMK A01
KM02 090115Z AUTO 17008G14KT 10SM BKN032 OVC039 14/07 A2996 RMK A01
KM02 090055Z AUTO 18008G15KT 150V220 10SM OVC032 14/07 A2997 RMK A01
KM02 090035Z AUTO 17006KT 10SM OVC034 14/07 A2999 RMK A01
KM02 090015Z AUTO 17008KT 10SM BKN033 BKN039 OVC045 14/07 A2999 RMK A01
KM02 082355Z AUTO 17010KT 10SM OVC032 14/07 A2999 RMK A01
KM02 082335Z AUTO 19009KT 10SM OVC033 14/07 A3000 RMK A01
KM02 082315Z AUTO 18007KT 140V200 10SM OVC033 14/07 A3001 RMK A01
KM02 082255Z AUTO 19006KT 10SM OVC034 14/07 A3000 RMK A01
KM02 082235Z AUTO VRB06G12KT 10SM OVC033 15/07 A2999 RMK A01
KM02 082215Z AUTO 18008G13KT 10SM OVC033 15/07 A3001 RMK A01
KM02 082155Z AUTO 19009G16KT 10SM OVC033 15/07 A3002 RMK A01
KM02 082135Z AUTO 19009KT 10SM OVC033 15/07 A3002 RMK A01
KM02 082115Z AUTO 18009G15KT 150V210 10SM OVC033 15/07 A3002 RMK A01
KM02 082055Z AUTO 18008G16KT 10SM BKN033 BKN040 OVC060 15/07 A3002 RMK A01
KM02 082035Z AUTO 19012KT 10SM BKN035 BKN060 16/08 A3002 RMK A01
KM02 082015Z AUTO 19013G21KT 10SM OVC036 15/08 A3003 RMK A01
KM02 081955Z AUTO 20012G17KT 10SM OVC035 16/08 A3005 RMK A01
KM02 081935Z AUTO 19010KT 10SM BKN036 BKN042 OVC050 16/08 A3004 RMK A01
KM02 081915Z AUTO 20011G18KT 10SM SCT033 OVC050 15/08 A3004 RMK A01
KM02 081855Z AUTO 20016G22KT 10SM OVC033 15/08 A3005 RMK A01
KM02 081835Z AUTO 20014G20KT 10SM OVC033 15/07 A3006 RMK A01
KM02 081815Z AUTO 20017KT 10SM BKN030 BKN035 OVC050 15/07 A3007 RMK A01
KM02 081755Z AUTO 20013G22KT 10SM SCT029 SCT034 BKN050 15/07 A3008 RMK A01
KM02 081735Z AUTO 19018KT 10SM FEW032 BKN041 OVC050 15/07 A3009 RMK A01
KM02 081715Z AUTO 19012G22KT 10SM BKN039 BKN050 14/07 A3010 RMK A01
KM02 081655Z AUTO 19015G20KT 10SM FEW031 SCT050 14/07 A3012 RMK A01
KM02 081635Z AUTO 20013G22KT 6SM HZ BKN050 14/07 A3013 RMK A01
KM02 081615Z AUTO 20014G23KT 6SM HZ FEW050 13/06 A3015 RMK A01
KM02 081555Z AUTO 20015G20KT 7SM FEW050 13/06 A3014 RMK A01
KM02 081535Z AUTO 19011G18KT 9SM FEW050 12/06 A3015 RMK A01
KM02 081515Z AUTO 18010G17KT 9SM SCT050 12/06 A3016 RMK A01
KM02 081455Z AUTO 19012G18KT 10SM BKN050 BKN055 11/05 A3016 RMK A01
KM02 081435Z AUTO 18008G13KT 9SM OVC050 10/05 A3017 RMK A01
KM02 081415Z AUTO 18008G14KT 9SM OVC050 10/05 A3017 RMK A01
KM02 081355Z AUTO 18007G13KT 9SM OVC050 10/05 A3016 RMK A01
KM02 081335Z AUTO 18008KT 10SM OVC050 09/05 A3017 RMK A01
KM02 081315Z AUTO 18007G13KT 9SM BKN050 09/05 A3016 RMK A01
KM02 081255Z AUTO 19007KT 10SM BKN049 09/05 A3017 RMK A01
KM02 081235Z AUTO 18009G15KT 10SM OVC048 09/05 A3016 RMK A01
KM02 081215Z AUTO 18008KT 10SM OVC046 08/05 A3016 RMK A01
KM02 081155Z AUTO 18009G14KT 10SM OVC044 08/05 A3017 RMK A01
KM02 081135Z AUTO 18009KT 10SM OVC043 08/05 A3017 RMK A01
KM02 081115Z AUTO 18008KT 10SM BKN043 08/05 A3016 RMK A01
KM02 081055Z AUTO 18006KT 10SM CLR 08/05 A3016 RMK A01
KM02 081035Z AUTO 18007KT 10SM CLR 08/05 A3015 RMK A01
KM02 081015Z AUTO 18005KT 10SM CLR 06/04 A3015 RMK A01
KM02 080955Z AUTO 17005KT 10SM CLR 06/04 A3015 RMK A01
KM02 080935Z AUTO 17004KT 10SM SCT041 05/04 A3016 RMK A01
KM02 080915Z AUTO 15004KT 9SM BKN040 BKN046 04/03 A3015 RMK A01
KM02 080855Z AUTO 14004KT 8SM BKN042 05/04 A3016 RMK A01
KM02 080835Z AUTO 14003KT 7SM CLR 04/03 A3017 RMK A01
KM02 080815Z AUTO 14004KT 4SM BR CLR 04/03 A3017 RMK A01
KM02 080755Z AUTO 00000KT 6SM BR FEW039 04/03 A3018 RMK A01
KM02 080735Z AUTO 00000KT 6SM BR SCT038 05/04 A3018 RMK A01
KM02 080715Z AUTO 13003KT 5SM BR 05/04 A3019 RMK A01
KM02 080655Z AUTO 14003KT 5SM BR 04/03 A3019 RMK A01
KM02 080635Z AUTO 00000KT 6SM BR FEW037 05/04 A3019 RMK A01
KM02 080615Z AUTO 00000KT 5SM BR CLR 05/04 A3020 RMK A01
KM02 080555Z AUTO 00000KT 7SM CLR 05/04 A3021 RMK A01
KM02 080535Z AUTO 00000KT 6SM BR CLR 04/04 A3021 RMK A01
KM02 080515Z AUTO 00000KT 5SM BR CLR 04/04 A3022 RMK A01
KM02 080455Z AUTO 00000KT 6SM BR CLR 04/03 A3022 RMK A01
KM02 080435Z AUTO 00000KT 6SM BR CLR 04/04 A3022 RMK A01
KM02 080415Z AUTO 00000KT 6SM BR CLR 04/04 A3022 RMK A01
KM02 080355Z AUTO 00000KT 6SM BR CLR 04/04 A3023 RMK A01
KM02 080335Z AUTO 00000KT 6SM BR CLR 04/04 A3023 RMK A01
KM02 080315Z AUTO 00000KT 6SM BR CLR 05/04 A3024 RMK A01
KM02 080255Z AUTO 00000KT 7SM CLR 05/04 A3024 RMK A01
KM02 080235Z AUTO 00000KT 7SM CLR 05/03 A3025 RMK A01
KM02 080215Z AUTO 00000KT 9SM CLR 05/04 A3025 RMK A01
KM02 080155Z AUTO 00000KT 10SM CLR 05/04 A3025 RMK A01
KM02 080135Z AUTO 00000KT 10SM CLR 07/04 A3025 RMK A01
KM02 080115Z AUTO 00000KT 10SM CLR 06/04 A3025 RMK A01